sensor_id;sensor_type;location;lat;lon;timestamp;pressure;altitude;pressure_sealevel;temperature;humidity
73242;BME280;65659;49.234;-2.094;2023-04-01T00:01:41;99484.59;;;15.38;46.12
73242;BME280;65659;49.234;-2.094;2023-04-01T00:04:06;99477.12;;;15.53;45.99
73242;BME280;65659;49.234;-2.094;2023-04-01T00:06:32;99487.04;;;15.49;46.13
73242;BME280;65659;49.234;-2.094;2023-04-01T00:08:58;99500.76;;;15.40;46.53
73242;BME280;65659;49.234;-2.094;2023-04-01T00:11:24;99484.37;;;14.78;47.57
73242;BME280;65659;49.234;-2.094;2023-04-01T00:13:49;99493.00;;;15.06;47.15
73242;BME280;65659;49.234;-2.094;2023-04-01T00:16:15;99487.95;;;15.05;47.65
73242;BME280;65659;49.234;-2.094;2023-04-01T00:18:40;99495.29;;;14.86;47.46
73242;BME280;65659;49.234;-2.094;2023-04-01T00:21:05;99503.99;;;15.15;47.28
73242;BME280;65659;49.234;-2.094;2023-04-01T00:23:30;99495.08;;;15.09;47.43
73242;BME280;65659;49.234;-2.094;2023-04-01T00:25:55;99505.02;;;14.95;47.83
73242;BME280;65659;49.234;-2.094;2023-04-01T00:28:21;99496.49;;;14.99;48.15
73242;BME280;65659;49.234;-2.094;2023-04-01T00:30:47;99505.46;;;15.06;48.07
73242;BME280;65659;49.234;-2.094;2023-04-01T00:33:11;99506.83;;;14.73;48.62
73242;BME280;65659;49.234;-2.094;2023-04-01T00:35:37;99511.47;;;14.89;48.67
73242;BME280;65659;49.234;-2.094;2023-04-01T00:38:02;99515.26;;;14.67;49.19
73242;BME280;65659;49.234;-2.094;2023-04-01T00:40:30;99512.91;;;14.77;49.05
73242;BME280;65659;49.234;-2.094;2023-04-01T00:42:53;99507.84;;;14.72;49.05
73242;BME280;65659;49.234;-2.094;2023-04-01T00:45:28;99509.59;;;14.68;49.31
73242;BME280;65659;49.234;-2.094;2023-04-01T00:47:44;99519.47;;;14.41;49.62
73242;BME280;65659;49.234;-2.094;2023-04-01T00:50:09;99520.95;;;14.83;49.69
73242;BME280;65659;49.234;-2.094;2023-04-01T00:52:35;99517.53;;;14.75;48.95
73242;BME280;65659;49.234;-2.094;2023-04-01T00:55:02;99519.17;;;14.63;49.25
73242;BME280;65659;49.234;-2.094;2023-04-01T00:57:30;99520.89;;;14.55;49.39
73242;BME280;65659;49.234;-2.094;2023-04-01T00:59:54;99518.73;;;15.26;48.91
73242;BME280;65659;49.234;-2.094;2023-04-01T01:02:17;99524.24;;;14.80;48.76
73242;BME280;65659;49.234;-2.094;2023-04-01T01:04:42;99528.64;;;14.66;48.88
73242;BME280;65659;49.234;-2.094;2023-04-01T01:07:15;99517.52;;;14.69;48.57
73242;BME280;65659;49.234;-2.094;2023-04-01T01:09:42;99517.78;;;14.62;48.54
73242;BME280;65659;49.234;-2.094;2023-04-01T01:12:03;99524.14;;;14.50;48.55
73242;BME280;65659;49.234;-2.094;2023-04-01T01:14:34;99521.37;;;14.99;48.44
73242;BME280;65659;49.234;-2.094;2023-04-01T01:16:53;99527.43;;;14.95;48.19
73242;BME280;65659;49.234;-2.094;2023-04-01T01:19:28;99542.21;;;14.69;48.72
73242;BME280;65659;49.234;-2.094;2023-04-01T01:21:54;99533.86;;;14.62;48.51
73242;BME280;65659;49.234;-2.094;2023-04-01T01:26:42;99544.79;;;14.59;48.45
73242;BME280;65659;49.234;-2.094;2023-04-01T01:29:04;99533.78;;;14.46;48.59
73242;BME280;65659;49.234;-2.094;2023-04-01T01:31:24;99526.65;;;14.47;48.48
73242;BME280;65659;49.234;-2.094;2023-04-01T01:33:57;99530.80;;;14.71;48.07
73242;BME280;65659;49.234;-2.094;2023-04-01T01:36:14;99532.63;;;14.40;48.53
73242;BME280;65659;49.234;-2.094;2023-04-01T01:38:37;99528.45;;;14.78;48.40
73242;BME280;65659;49.234;-2.094;2023-04-01T01:41:04;99531.59;;;14.69;48.56
73242;BME280;65659;49.234;-2.094;2023-04-01T01:43:30;99531.84;;;14.90;48.15
73242;BME280;65659;49.234;-2.094;2023-04-01T01:45:57;99544.58;;;14.52;48.24
73242;BME280;65659;49.234;-2.094;2023-04-01T01:48:19;99542.58;;;14.72;47.97
73242;BME280;65659;49.234;-2.094;2023-04-01T01:50:45;99535.37;;;14.56;47.70
73242;BME280;65659;49.234;-2.094;2023-04-01T01:53:11;99532.39;;;15.21;47.24
73242;BME280;65659;49.234;-2.094;2023-04-01T01:55:36;99539.81;;;14.81;47.88
73242;BME280;65659;49.234;-2.094;2023-04-01T01:58:05;99554.20;;;14.63;48.19
73242;BME280;65659;49.234;-2.094;2023-04-01T02:00:26;99539.46;;;14.91;48.12
73242;BME280;65659;49.234;-2.094;2023-04-01T02:02:51;99555.17;;;14.44;48.44
73242;BME280;65659;49.234;-2.094;2023-04-01T02:05:18;99548.43;;;14.38;48.81
73242;BME280;65659;49.234;-2.094;2023-04-01T02:07:44;99543.28;;;14.28;48.66
73242;BME280;65659;49.234;-2.094;2023-04-01T02:10:08;99546.89;;;14.68;48.72
73242;BME280;65659;49.234;-2.094;2023-04-01T02:12:34;99544.77;;;14.29;48.59
73242;BME280;65659;49.234;-2.094;2023-04-01T02:15:03;99538.83;;;14.78;48.14
73242;BME280;65659;49.234;-2.094;2023-04-01T02:17:24;99543.65;;;14.51;48.27
73242;BME280;65659;49.234;-2.094;2023-04-01T02:19:52;99539.70;;;14.67;48.17
73242;BME280;65659;49.234;-2.094;2023-04-01T02:24:40;99545.26;;;14.74;48.11
73242;BME280;65659;49.234;-2.094;2023-04-01T02:27:04;99541.98;;;14.51;48.23
73242;BME280;65659;49.234;-2.094;2023-04-01T02:29:29;99544.59;;;15.18;47.83
73242;BME280;65659;49.234;-2.094;2023-04-01T02:31:54;99539.70;;;14.64;48.40
73242;BME280;65659;49.234;-2.094;2023-04-01T02:34:20;99539.16;;;14.58;48.67
73242;BME280;65659;49.234;-2.094;2023-04-01T02:36:46;99540.83;;;14.55;48.90
73242;BME280;65659;49.234;-2.094;2023-04-01T02:39:11;99550.07;;;14.88;48.78
73242;BME280;65659;49.234;-2.094;2023-04-01T02:41:39;99542.19;;;14.58;48.82
73242;BME280;65659;49.234;-2.094;2023-04-01T02:44:01;99548.74;;;14.46;48.95
73242;BME280;65659;49.234;-2.094;2023-04-01T02:46:27;99544.62;;;14.67;48.58
73242;BME280;65659;49.234;-2.094;2023-04-01T02:48:52;99553.83;;;14.73;48.89
73242;BME280;65659;49.234;-2.094;2023-04-01T02:51:18;99565.39;;;14.53;48.93
73242;BME280;65659;49.234;-2.094;2023-04-01T02:53:43;99547.14;;;14.93;48.78
73242;BME280;65659;49.234;-2.094;2023-04-01T02:56:09;99556.29;;;14.57;48.90
73242;BME280;65659;49.234;-2.094;2023-04-01T02:58:34;99554.66;;;14.60;49.18
73242;BME280;65659;49.234;-2.094;2023-04-01T03:01:00;99551.53;;;14.31;49.18
73242;BME280;65659;49.234;-2.094;2023-04-01T03:03:25;99547.32;;;14.45;48.66
73242;BME280;65659;49.234;-2.094;2023-04-01T03:05:51;99562.85;;;14.20;48.61
73242;BME280;65659;49.234;-2.094;2023-04-01T03:08:15;99540.65;;;14.53;47.92
73242;BME280;65659;49.234;-2.094;2023-04-01T03:10:41;99542.55;;;14.66;48.05
73242;BME280;65659;49.234;-2.094;2023-04-01T03:13:06;99560.20;;;14.37;48.62
73242;BME280;65659;49.234;-2.094;2023-04-01T03:15:31;99567.56;;;14.67;48.49
73242;BME280;65659;49.234;-2.094;2023-04-01T03:17:57;99564.08;;;14.38;48.56
73242;BME280;65659;49.234;-2.094;2023-04-01T03:20:23;99565.06;;;14.33;48.54
73242;BME280;65659;49.234;-2.094;2023-04-01T03:22:48;99541.13;;;14.47;48.29
73242;BME280;65659;49.234;-2.094;2023-04-01T03:25:14;99567.03;;;14.55;48.10
73242;BME280;65659;49.234;-2.094;2023-04-01T03:27:39;99569.27;;;14.45;48.13
73242;BME280;65659;49.234;-2.094;2023-04-01T03:30:07;99562.83;;;14.68;47.60
73242;BME280;65659;49.234;-2.094;2023-04-01T03:32:31;99564.60;;;14.20;47.57
73242;BME280;65659;49.234;-2.094;2023-04-01T03:34:56;99561.40;;;14.40;47.18
73242;BME280;65659;49.234;-2.094;2023-04-01T03:37:22;99574.06;;;14.91;46.80
73242;BME280;65659;49.234;-2.094;2023-04-01T03:39:47;99569.94;;;14.80;46.66
73242;BME280;65659;49.234;-2.094;2023-04-01T03:42:12;99568.85;;;15.04;46.61
73242;BME280;65659;49.234;-2.094;2023-04-01T03:44:38;99589.70;;;14.58;46.93
73242;BME280;65659;49.234;-2.094;2023-04-01T03:47:03;99569.93;;;14.42;47.22
73242;BME280;65659;49.234;-2.094;2023-04-01T03:49:29;99571.40;;;14.49;46.89
73242;BME280;65659;49.234;-2.094;2023-04-01T03:51:54;99578.00;;;14.58;47.07
73242;BME280;65659;49.234;-2.094;2023-04-01T03:54:20;99575.22;;;14.59;46.58
73242;BME280;65659;49.234;-2.094;2023-04-01T03:56:46;99572.90;;;14.77;46.64
73242;BME280;65659;49.234;-2.094;2023-04-01T03:59:11;99561.48;;;14.48;46.54
73242;BME280;65659;49.234;-2.094;2023-04-01T04:01:36;99571.79;;;14.46;46.21
73242;BME280;65659;49.234;-2.094;2023-04-01T04:04:01;99576.10;;;14.81;46.00
73242;BME280;65659;49.234;-2.094;2023-04-01T04:06:27;99577.86;;;14.72;46.21
73242;BME280;65659;49.234;-2.094;2023-04-01T04:08:53;99577.98;;;15.05;46.04
73242;BME280;65659;49.234;-2.094;2023-04-01T04:11:19;99587.64;;;14.73;46.23
73242;BME280;65659;49.234;-2.094;2023-04-01T04:13:44;99584.45;;;14.73;46.59
73242;BME280;65659;49.234;-2.094;2023-04-01T04:16:10;99574.87;;;14.79;46.49
73242;BME280;65659;49.234;-2.094;2023-04-01T04:18:34;99579.16;;;14.74;46.23
73242;BME280;65659;49.234;-2.094;2023-04-01T04:20:59;99577.36;;;15.45;45.94
73242;BME280;65659;49.234;-2.094;2023-04-01T04:23:25;99568.36;;;14.85;46.04
73242;BME280;65659;49.234;-2.094;2023-04-01T04:25:56;99587.25;;;14.69;46.27
73242;BME280;65659;49.234;-2.094;2023-04-01T04:28:16;99586.76;;;14.88;46.04
73242;BME280;65659;49.234;-2.094;2023-04-01T04:30:41;99587.94;;;14.96;45.91
73242;BME280;65659;49.234;-2.094;2023-04-01T04:33:06;99588.49;;;15.29;45.91
73242;BME280;65659;49.234;-2.094;2023-04-01T04:35:33;99589.06;;;14.92;46.28
73242;BME280;65659;49.234;-2.094;2023-04-01T04:37:57;99591.48;;;15.05;46.02
73242;BME280;65659;49.234;-2.094;2023-04-01T04:40:23;99591.36;;;14.97;46.15
73242;BME280;65659;49.234;-2.094;2023-04-01T04:42:48;99592.61;;;14.65;46.47
73242;BME280;65659;49.234;-2.094;2023-04-01T04:45:14;99590.91;;;14.77;46.03
73242;BME280;65659;49.234;-2.094;2023-04-01T04:47:39;99584.25;;;14.88;45.50
73242;BME280;65659;49.234;-2.094;2023-04-01T04:50:06;99609.96;;;14.89;44.99
73242;BME280;65659;49.234;-2.094;2023-04-01T04:52:29;99593.23;;;14.62;44.93
73242;BME280;65659;49.234;-2.094;2023-04-01T04:54:54;99599.48;;;14.55;45.61
73242;BME280;65659;49.234;-2.094;2023-04-01T04:57:20;99589.62;;;14.60;45.76
73242;BME280;65659;49.234;-2.094;2023-04-01T04:59:45;99596.18;;;14.89;45.90
73242;BME280;65659;49.234;-2.094;2023-04-01T05:02:11;99601.33;;;14.69;46.01
73242;BME280;65659;49.234;-2.094;2023-04-01T05:04:37;99596.20;;;14.69;46.14
73242;BME280;65659;49.234;-2.094;2023-04-01T05:07:02;99597.53;;;14.94;46.52
73242;BME280;65659;49.234;-2.094;2023-04-01T05:09:28;99595.30;;;14.53;47.26
73242;BME280;65659;49.234;-2.094;2023-04-01T05:11:53;99597.06;;;14.72;47.42
73242;BME280;65659;49.234;-2.094;2023-04-01T05:14:18;99606.58;;;14.34;47.70
73242;BME280;65659;49.234;-2.094;2023-04-01T05:16:43;99603.68;;;14.65;47.81
73242;BME280;65659;49.234;-2.094;2023-04-01T05:19:08;99622.85;;;14.14;48.24
73242;BME280;65659;49.234;-2.094;2023-04-01T05:21:33;99620.38;;;14.38;47.90
73242;BME280;65659;49.234;-2.094;2023-04-01T05:23:58;99618.27;;;14.33;47.91
73242;BME280;65659;49.234;-2.094;2023-04-01T05:26:24;99624.13;;;14.56;47.48
73242;BME280;65659;49.234;-2.094;2023-04-01T05:28:49;99621.50;;;14.28;47.69
73242;BME280;65659;49.234;-2.094;2023-04-01T05:31:14;99614.13;;;14.31;47.97
73242;BME280;65659;49.234;-2.094;2023-04-01T05:33:39;99619.22;;;14.06;48.03
73242;BME280;65659;49.234;-2.094;2023-04-01T05:36:08;99615.64;;;14.15;47.74
73242;BME280;65659;49.234;-2.094;2023-04-01T05:38:30;99624.89;;;14.12;47.73
73242;BME280;65659;49.234;-2.094;2023-04-01T05:40:59;99627.15;;;13.85;48.02
73242;BME280;65659;49.234;-2.094;2023-04-01T05:43:21;99629.87;;;14.03;47.91
73242;BME280;65659;49.234;-2.094;2023-04-01T05:45:48;99620.32;;;14.14;48.24
73242;BME280;65659;49.234;-2.094;2023-04-01T05:48:12;99629.67;;;13.70;48.27
73242;BME280;65659;49.234;-2.094;2023-04-01T05:50:40;99631.50;;;14.03;47.75
73242;BME280;65659;49.234;-2.094;2023-04-01T05:53:03;99620.69;;;13.97;48.24
73242;BME280;65659;49.234;-2.094;2023-04-01T05:55:28;99638.39;;;14.25;48.27
73242;BME280;65659;49.234;-2.094;2023-04-01T05:57:53;99627.54;;;13.96;48.90
73242;BME280;65659;49.234;-2.094;2023-04-01T06:00:18;99632.55;;;13.80;48.52
73242;BME280;65659;49.234;-2.094;2023-04-01T06:02:43;99633.29;;;13.79;48.60
73242;BME280;65659;49.234;-2.094;2023-04-01T06:05:15;99638.91;;;13.94;48.30
73242;BME280;65659;49.234;-2.094;2023-04-01T06:07:34;99641.80;;;14.46;47.93
73242;BME280;65659;49.234;-2.094;2023-04-01T06:09:59;99638.23;;;14.20;48.05
73242;BME280;65659;49.234;-2.094;2023-04-01T06:12:39;99631.66;;;13.95;47.56
73242;BME280;65659;49.234;-2.094;2023-04-01T06:14:58;99633.33;;;14.63;47.16
73242;BME280;65659;49.234;-2.094;2023-04-01T06:17:24;99639.37;;;14.54;47.50
73242;BME280;65659;49.234;-2.094;2023-04-01T06:19:43;99637.26;;;14.27;47.47
73242;BME280;65659;49.234;-2.094;2023-04-01T06:24:42;99638.86;;;14.07;47.57
73242;BME280;65659;49.234;-2.094;2023-04-01T06:27:01;99638.54;;;14.25;47.71
73242;BME280;65659;49.234;-2.094;2023-04-01T06:29:34;99634.74;;;14.17;47.91
73242;BME280;65659;49.234;-2.094;2023-04-01T06:31:57;99642.52;;;13.98;48.15
73242;BME280;65659;49.234;-2.094;2023-04-01T06:34:25;99644.45;;;14.27;48.38
73242;BME280;65659;49.234;-2.094;2023-04-01T06:36:47;99641.57;;;14.29;48.51
73242;BME280;65659;49.234;-2.094;2023-04-01T06:39:12;99644.42;;;14.20;48.50
73242;BME280;65659;49.234;-2.094;2023-04-01T06:41:36;99651.28;;;14.43;48.34
73242;BME280;65659;49.234;-2.094;2023-04-01T06:43:59;99645.81;;;14.38;48.42
73242;BME280;65659;49.234;-2.094;2023-04-01T06:46:22;99646.25;;;14.54;48.07
73242;BME280;65659;49.234;-2.094;2023-04-01T06:48:56;99651.68;;;14.43;47.87
73242;BME280;65659;49.234;-2.094;2023-04-01T06:51:17;99649.54;;;14.66;47.41
73242;BME280;65659;49.234;-2.094;2023-04-01T06:53:37;99650.71;;;14.63;47.43
73242;BME280;65659;49.234;-2.094;2023-04-01T06:56:03;99650.55;;;14.67;47.49
73242;BME280;65659;49.234;-2.094;2023-04-01T06:58:27;99657.60;;;14.73;47.52
73242;BME280;65659;49.234;-2.094;2023-04-01T07:00:54;99664.18;;;14.68;47.28
73242;BME280;65659;49.234;-2.094;2023-04-01T07:03:21;99651.14;;;14.73;47.15
73242;BME280;65659;49.234;-2.094;2023-04-01T07:05:41;99650.61;;;14.63;47.04
73242;BME280;65659;49.234;-2.094;2023-04-01T07:08:11;99661.29;;;15.02;46.83
73242;BME280;65659;49.234;-2.094;2023-04-01T07:10:37;99657.94;;;14.55;47.44
73242;BME280;65659;49.234;-2.094;2023-04-01T07:12:58;99673.63;;;14.88;47.45
73242;BME280;65659;49.234;-2.094;2023-04-01T07:15:28;99676.80;;;14.78;48.03
73242;BME280;65659;49.234;-2.094;2023-04-01T07:17:50;99670.38;;;14.27;48.59
73242;BME280;65659;49.234;-2.094;2023-04-01T07:20:18;99665.23;;;13.78;49.44
73242;BME280;65659;49.234;-2.094;2023-04-01T07:22:41;99676.49;;;14.12;49.47
73242;BME280;65659;49.234;-2.094;2023-04-01T07:25:12;99669.85;;;13.98;49.93
73242;BME280;65659;49.234;-2.094;2023-04-01T07:27:29;99672.42;;;13.74;50.22
73242;BME280;65659;49.234;-2.094;2023-04-01T07:29:56;99691.22;;;13.99;50.49
73242;BME280;65659;49.234;-2.094;2023-04-01T07:32:27;99693.52;;;13.85;50.62
73242;BME280;65659;49.234;-2.094;2023-04-01T07:34:57;99686.10;;;13.94;50.46
73242;BME280;65659;49.234;-2.094;2023-04-01T07:37:12;99688.41;;;13.60;50.43
73242;BME280;65659;49.234;-2.094;2023-04-01T07:39:40;99677.66;;;13.62;50.64
73242;BME280;65659;49.234;-2.094;2023-04-01T07:42:04;99680.97;;;13.67;50.93
73242;BME280;65659;49.234;-2.094;2023-04-01T07:44:29;99681.62;;;13.84;51.30
73242;BME280;65659;49.234;-2.094;2023-04-01T07:47:00;99676.92;;;13.63;51.42
73242;BME280;65659;49.234;-2.094;2023-04-01T07:49:19;99675.06;;;13.96;51.23
73242;BME280;65659;49.234;-2.094;2023-04-01T07:51:47;99677.36;;;13.63;51.23
73242;BME280;65659;49.234;-2.094;2023-04-01T07:54:10;99664.05;;;13.68;51.41
73242;BME280;65659;49.234;-2.094;2023-04-01T07:56:38;99670.89;;;13.80;51.51
73242;BME280;65659;49.234;-2.094;2023-04-01T07:59:02;99669.85;;;13.89;51.49
73242;BME280;65659;49.234;-2.094;2023-04-01T08:01:28;99676.93;;;14.05;51.52
73242;BME280;65659;49.234;-2.094;2023-04-01T08:04:00;99681.24;;;13.93;51.46
73242;BME280;65659;49.234;-2.094;2023-04-01T08:06:19;99678.06;;;14.62;51.46
73242;BME280;65659;49.234;-2.094;2023-04-01T08:08:51;99690.74;;;14.38;51.19
73242;BME280;65659;49.234;-2.094;2023-04-01T08:11:13;99697.58;;;14.15;50.98
73242;BME280;65659;49.234;-2.094;2023-04-01T08:13:35;99701.91;;;14.61;50.17
73242;BME280;65659;49.234;-2.094;2023-04-01T08:16:00;99701.05;;;14.36;49.92
73242;BME280;65659;49.234;-2.094;2023-04-01T08:18:27;99699.45;;;14.35;49.93
73242;BME280;65659;49.234;-2.094;2023-04-01T08:20:48;99708.43;;;14.21;50.35
73242;BME280;65659;49.234;-2.094;2023-04-01T08:23:14;99698.85;;;14.43;50.54
73242;BME280;65659;49.234;-2.094;2023-04-01T08:25:39;99704.77;;;14.80;50.62
73242;BME280;65659;49.234;-2.094;2023-04-01T08:28:10;99705.69;;;14.43;50.64
73242;BME280;65659;49.234;-2.094;2023-04-01T08:30:33;99713.63;;;14.39;50.68
73242;BME280;65659;49.234;-2.094;2023-04-01T08:32:57;99711.07;;;14.49;50.18
73242;BME280;65659;49.234;-2.094;2023-04-01T08:35:25;99714.48;;;14.70;50.38
73242;BME280;65659;49.234;-2.094;2023-04-01T08:37:44;99709.53;;;14.81;50.27
73242;BME280;65659;49.234;-2.094;2023-04-01T08:40:20;99697.56;;;14.80;50.18
73242;BME280;65659;49.234;-2.094;2023-04-01T08:42:55;99704.65;;;15.02;49.63
73242;BME280;65659;49.234;-2.094;2023-04-01T08:45:07;99709.10;;;14.82;49.39
73242;BME280;65659;49.234;-2.094;2023-04-01T08:47:44;99709.37;;;14.94;48.92
73242;BME280;65659;49.234;-2.094;2023-04-01T08:50:05;99706.15;;;14.57;49.27
73242;BME280;65659;49.234;-2.094;2023-04-01T08:52:22;99702.73;;;14.97;49.11
73242;BME280;65659;49.234;-2.094;2023-04-01T08:54:54;99699.70;;;14.73;48.98
73242;BME280;65659;49.234;-2.094;2023-04-01T08:57:09;99700.11;;;14.82;48.73
73242;BME280;65659;49.234;-2.094;2023-04-01T08:59:42;99705.41;;;15.09;48.94
73242;BME280;65659;49.234;-2.094;2023-04-01T09:02:11;99712.50;;;14.95;48.98
73242;BME280;65659;49.234;-2.094;2023-04-01T09:04:32;99714.83;;;14.52;49.12
73242;BME280;65659;49.234;-2.094;2023-04-01T09:06:53;99714.20;;;14.86;48.67
73242;BME280;65659;49.234;-2.094;2023-04-01T09:09:23;99711.66;;;14.90;48.25
73242;BME280;65659;49.234;-2.094;2023-04-01T09:14:20;99704.65;;;15.40;47.06
73242;BME280;65659;49.234;-2.094;2023-04-01T09:16:43;99706.91;;;15.45;46.86
73242;BME280;65659;49.234;-2.094;2023-04-01T09:21:24;99712.27;;;15.28;46.83
73242;BME280;65659;49.234;-2.094;2023-04-01T09:26:19;99716.48;;;15.64;46.49
73242;BME280;65659;49.234;-2.094;2023-04-01T09:28:40;99714.81;;;15.59;46.70
73242;BME280;65659;49.234;-2.094;2023-04-01T09:31:08;99726.04;;;15.43;46.52
73242;BME280;65659;49.234;-2.094;2023-04-01T09:35:54;99720.18;;;15.54;46.10
73242;BME280;65659;49.234;-2.094;2023-04-01T09:38:21;99711.78;;;15.96;45.26
73242;BME280;65659;49.234;-2.094;2023-04-01T09:40:48;99727.69;;;15.77;45.01
73242;BME280;65659;49.234;-2.094;2023-04-01T09:43:25;99728.79;;;16.04;44.68
73242;BME280;65659;49.234;-2.094;2023-04-01T09:45:41;99728.42;;;16.16;44.87
73242;BME280;65659;49.234;-2.094;2023-04-01T09:48:07;99721.15;;;16.01;45.15
73242;BME280;65659;49.234;-2.094;2023-04-01T09:50:33;99728.54;;;16.42;44.66
73242;BME280;65659;49.234;-2.094;2023-04-01T09:52:52;99736.92;;;16.13;44.86
73242;BME280;65659;49.234;-2.094;2023-04-01T09:55:21;99727.99;;;16.18;44.40
73242;BME280;65659;49.234;-2.094;2023-04-01T09:57:53;99737.74;;;16.32;44.33
73242;BME280;65659;49.234;-2.094;2023-04-01T10:00:20;99739.45;;;16.07;44.20
73242;BME280;65659;49.234;-2.094;2023-04-01T10:14:49;99749.71;;;16.69;43.40
73242;BME280;65659;49.234;-2.094;2023-04-01T10:17:17;99739.07;;;16.35;42.84
73242;BME280;65659;49.234;-2.094;2023-04-01T10:24:30;99752.16;;;16.96;42.63
73242;BME280;65659;49.234;-2.094;2023-04-01T10:26:55;99753.43;;;16.79;43.00
73242;BME280;65659;49.234;-2.094;2023-04-01T10:34:10;99768.31;;;16.59;42.99
73242;BME280;65659;49.234;-2.094;2023-04-01T10:36:33;99763.54;;;16.48;42.86
73242;BME280;65659;49.234;-2.094;2023-04-01T10:39:07;99766.23;;;16.69;43.37
73242;BME280;65659;49.234;-2.094;2023-04-01T10:48:44;99790.02;;;16.59;42.94
73242;BME280;65659;49.234;-2.094;2023-04-01T10:53:37;99777.22;;;16.40;42.82
73242;BME280;65659;49.234;-2.094;2023-04-01T11:08:07;99783.88;;;16.29;42.51
73242;BME280;65659;49.234;-2.094;2023-04-01T11:13:08;99791.42;;;16.21;42.59
73242;BME280;65659;49.234;-2.094;2023-04-01T11:20:28;99787.23;;;16.28;42.55
73242;BME280;65659;49.234;-2.094;2023-04-01T11:25:13;99796.07;;;16.71;42.24
73242;BME280;65659;49.234;-2.094;2023-04-01T11:27:33;99801.92;;;16.44;42.06
73242;BME280;65659;49.234;-2.094;2023-04-01T11:29:56;99816.01;;;16.68;41.82
73242;BME280;65659;49.234;-2.094;2023-04-01T11:32:22;99791.66;;;16.47;41.86
73242;BME280;65659;49.234;-2.094;2023-04-01T11:34:52;99790.00;;;16.50;41.99
73242;BME280;65659;49.234;-2.094;2023-04-01T11:37:09;99801.57;;;16.69;41.98
73242;BME280;65659;49.234;-2.094;2023-04-01T11:39:36;99816.58;;;16.73;42.04
73242;BME280;65659;49.234;-2.094;2023-04-01T11:42:03;99801.81;;;16.83;42.23
73242;BME280;65659;49.234;-2.094;2023-04-01T11:44:21;99810.41;;;16.86;42.29
73242;BME280;65659;49.234;-2.094;2023-04-01T11:47:02;99808.91;;;16.79;42.12
73242;BME280;65659;49.234;-2.094;2023-04-01T11:49:23;99805.91;;;16.95;42.14
73242;BME280;65659;49.234;-2.094;2023-04-01T11:51:50;99806.46;;;17.11;42.02
73242;BME280;65659;49.234;-2.094;2023-04-01T11:54:07;99818.44;;;17.01;42.14
73242;BME280;65659;49.234;-2.094;2023-04-01T11:56:39;99808.87;;;17.00;41.99
73242;BME280;65659;49.234;-2.094;2023-04-01T11:59:22;99819.50;;;17.14;42.62
73242;BME280;65659;49.234;-2.094;2023-04-01T12:01:25;99812.91;;;17.02;42.64
73242;BME280;65659;49.234;-2.094;2023-04-01T12:04:00;99815.43;;;16.88;42.84
73242;BME280;65659;49.234;-2.094;2023-04-01T12:06:16;99826.18;;;16.83;43.08
73242;BME280;65659;49.234;-2.094;2023-04-01T12:08:41;99822.65;;;16.98;42.34
73242;BME280;65659;49.234;-2.094;2023-04-01T12:11:07;99832.12;;;17.35;42.08
73242;BME280;65659;49.234;-2.094;2023-04-01T12:13:34;99832.90;;;16.88;42.05
73242;BME280;65659;49.234;-2.094;2023-04-01T12:18:22;99840.85;;;17.14;41.09
73242;BME280;65659;49.234;-2.094;2023-04-01T12:20:49;99833.94;;;17.20;41.14
73242;BME280;65659;49.234;-2.094;2023-04-01T12:23:22;99825.60;;;17.00;41.34
73242;BME280;65659;49.234;-2.094;2023-04-01T12:28:10;99844.71;;;16.94;41.31
73242;BME280;65659;49.234;-2.094;2023-04-01T12:30:33;99850.77;;;17.47;41.57
73242;BME280;65659;49.234;-2.094;2023-04-01T12:33:00;99834.46;;;17.24;41.53
73242;BME280;65659;49.234;-2.094;2023-04-01T12:35:21;99831.43;;;16.81;41.76
73242;BME280;65659;49.234;-2.094;2023-04-01T12:37:49;99834.93;;;16.93;41.21
73242;BME280;65659;49.234;-2.094;2023-04-01T12:42:50;99840.95;;;17.19;41.47
73242;BME280;65659;49.234;-2.094;2023-04-01T12:47:38;99841.35;;;16.99;41.62
73242;BME280;65659;49.234;-2.094;2023-04-01T12:49:55;99835.20;;;17.10;41.24
73242;BME280;65659;49.234;-2.094;2023-04-01T12:52:16;99855.53;;;17.26;40.76
73242;BME280;65659;49.234;-2.094;2023-04-01T12:54:58;99862.01;;;17.43;40.89
73242;BME280;65659;49.234;-2.094;2023-04-01T12:57:18;99858.99;;;17.63;40.89
73242;BME280;65659;49.234;-2.094;2023-04-01T12:59:53;99881.10;;;17.88;40.66
73242;BME280;65659;49.234;-2.094;2023-04-01T13:02:03;99864.19;;;17.57;40.57
73242;BME280;65659;49.234;-2.094;2023-04-01T13:04:33;99871.87;;;17.64;40.38
73242;BME280;65659;49.234;-2.094;2023-04-01T13:06:57;99860.15;;;17.68;40.22
73242;BME280;65659;49.234;-2.094;2023-04-01T13:09:24;99855.97;;;17.94;40.45
73242;BME280;65659;49.234;-2.094;2023-04-01T13:11:47;99859.79;;;18.01;40.09
73242;BME280;65659;49.234;-2.094;2023-04-01T13:14:19;99857.39;;;18.39;39.95
73242;BME280;65659;49.234;-2.094;2023-04-01T13:16:33;99857.65;;;18.08;39.68
73242;BME280;65659;49.234;-2.094;2023-04-01T13:19:01;99856.76;;;18.54;39.13
73242;BME280;65659;49.234;-2.094;2023-04-01T13:21:30;99865.82;;;18.66;38.73
73242;BME280;65659;49.234;-2.094;2023-04-01T13:23:56;99871.72;;;18.36;39.08
73242;BME280;65659;49.234;-2.094;2023-04-01T13:26:18;99857.20;;;18.19;38.62
73242;BME280;65659;49.234;-2.094;2023-04-01T13:28:42;99873.01;;;18.74;38.70
73242;BME280;65659;49.234;-2.094;2023-04-01T13:31:09;99863.52;;;18.87;38.71
73242;BME280;65659;49.234;-2.094;2023-04-01T13:33:35;99872.86;;;18.85;38.60
73242;BME280;65659;49.234;-2.094;2023-04-01T13:36:05;99874.24;;;18.77;38.06
73242;BME280;65659;49.234;-2.094;2023-04-01T13:40:52;99882.03;;;18.68;37.73
73242;BME280;65659;49.234;-2.094;2023-04-01T13:43:16;99877.62;;;18.74;38.03
73242;BME280;65659;49.234;-2.094;2023-04-01T13:45:46;99870.74;;;19.13;37.60
73242;BME280;65659;49.234;-2.094;2023-04-01T13:48:19;99871.41;;;19.03;37.64
73242;BME280;65659;49.234;-2.094;2023-04-01T13:53:08;99880.47;;;19.81;36.64
73242;BME280;65659;49.234;-2.094;2023-04-01T13:55:29;99887.06;;;19.76;36.19
73242;BME280;65659;49.234;-2.094;2023-04-01T13:57:59;99878.78;;;20.18;36.00
73242;BME280;65659;49.234;-2.094;2023-04-01T14:00:26;99885.95;;;20.02;36.39
73242;BME280;65659;49.234;-2.094;2023-04-01T14:02:46;99882.70;;;20.21;35.79
73242;BME280;65659;49.234;-2.094;2023-04-01T14:05:11;99892.34;;;20.52;35.52